Main page
Satellite images Climate Cyclones Lightning AirportsFAQ Languages Contact Newsletter About
Weather : Europe Africa North America South America Asia Australia-Oceania Others

0837, Phnom Penh, Phnom Penh International Airport

latitude: , longitude: Cambodia, elevation: 11-33N m


METAR: VDPP 270030Z 16004KT 9000 -RA SCT015 BKN040 25/25 Q1005